createdAt,value
2023-03-16T00:00:34.612Z,25.22
2023-03-16T00:04:34.620Z,25.30
2023-03-16T07:08:24.771Z,24.45
2023-03-16T07:12:24.275Z,23.55
2023-03-16T07:16:23.954Z,23.18
2023-03-16T07:20:24.303Z,22.67
2023-03-16T07:24:24.341Z,22.54
2023-03-16T07:28:24.282Z,22.19
2023-03-16T07:32:24.847Z,22.00
2023-03-16T07:36:24.818Z,21.83
2023-03-16T07:40:25.277Z,21.81
2023-03-16T07:44:25.302Z,21.69
2023-03-16T07:52:26.342Z,21.72
2023-03-16T07:56:25.331Z,21.79
2023-03-16T08:00:25.300Z,21.85
2023-03-16T08:04:25.287Z,21.99
2023-03-16T08:08:25.317Z,22.01
2023-03-16T08:12:25.352Z,22.10
2023-03-16T08:16:25.437Z,22.10
2023-03-16T08:20:25.437Z,22.11
2023-03-16T08:24:25.837Z,22.06
2023-03-16T10:24:26.923Z,28.02
2023-03-16T10:28:26.843Z,28.48
2023-03-16T10:32:28.162Z,28.95
2023-03-16T10:36:27.398Z,29.66
2023-03-16T10:40:27.584Z,29.99
2023-03-16T10:44:27.462Z,30.41
2023-03-16T10:48:28.008Z,30.68
2023-03-16T10:52:27.856Z,31.04
2023-03-16T10:56:27.520Z,31.29
2023-03-16T11:00:27.609Z,31.48
2023-03-16T11:12:27.872Z,32.43
2023-03-16T12:36:29.389Z,26.31
2023-03-16T12:52:30.394Z,36.12
2023-03-16T17:08:30.445Z,26.86
2023-03-16T17:12:30.428Z,26.88
2023-03-16T17:16:30.390Z,26.91
2023-03-16T17:20:30.308Z,26.92
2023-03-16T17:24:30.248Z,26.96
2023-03-16T17:28:30.227Z,26.98
2023-03-16T17:32:30.173Z,27.04
2023-03-16T17:36:30.142Z,27.32
2023-03-16T17:40:30.228Z,27.42
2023-03-16T17:44:29.998Z,27.77
2023-03-16T17:48:29.909Z,28.36
2023-03-16T17:52:29.942Z,28.77
2023-03-16T17:56:30.111Z,29.15
2023-03-16T18:00:30.588Z,29.65
2023-03-16T18:04:30.320Z,29.99
2023-03-16T18:08:30.414Z,30.31
2023-03-16T18:12:30.523Z,30.44
2023-03-16T18:16:30.690Z,31.02
2023-03-16T20:28:32.276Z,35.40
2023-03-16T20:32:32.289Z,35.95
2023-03-16T20:36:32.220Z,36.18
2023-03-16T20:40:32.215Z,36.60
2023-03-16T20:44:32.202Z,35.53
2023-03-16T20:48:32.252Z,35.01
2023-03-16T20:52:32.325Z,34.67
2023-03-16T20:56:32.462Z,34.50
2023-03-16T21:00:32.506Z,34.38
2023-03-16T21:36:32.910Z,33.17
2023-03-16T21:40:32.870Z,33.04
2023-03-16T21:44:32.839Z,32.86
2023-03-16T21:48:32.875Z,32.74
2023-03-16T21:52:32.846Z,32.62
2023-03-16T21:56:32.810Z,32.55
2023-03-16T22:00:32.796Z,32.42
2023-03-16T22:04:32.756Z,32.31
2023-03-16T22:08:32.719Z,32.19
2023-03-16T22:12:32.704Z,32.04
2023-03-16T22:16:32.963Z,31.93
2023-03-16T22:20:33.009Z,31.82
2023-03-16T22:24:34.948Z,31.73
2023-03-16T22:28:32.959Z,31.63
2023-03-16T22:32:33.048Z,31.63
2023-03-16T22:36:32.945Z,31.51
2023-03-16T22:40:32.927Z,31.44
2023-03-16T22:44:32.866Z,31.32
2023-03-16T22:48:32.881Z,31.28
2023-03-16T22:52:32.845Z,31.12
2023-03-16T22:56:32.819Z,31.07
2023-03-16T23:00:32.902Z,30.99
2023-03-16T23:04:33.169Z,30.91
2023-03-16T23:08:33.243Z,30.83
2023-03-16T23:12:33.341Z,30.70
2023-03-16T23:16:33.534Z,30.64
2023-03-16T23:20:33.412Z,30.54
2023-03-16T23:24:33.429Z,30.51
2023-03-16T23:28:33.425Z,30.43
2023-03-16T23:32:33.550Z,30.39
2023-03-16T23:36:33.631Z,30.29
2023-03-16T23:40:33.669Z,30.25
2023-03-16T23:44:33.674Z,30.12
2023-03-16T23:48:33.758Z,30.08
2023-03-16T23:52:33.856Z,30.05
2023-03-16T23:56:33.882Z,30.04
